Time;durP1;ratioP1;P1;durP2;ratioP2;P2;SDS_P1;SDS_P2;PMS_P1;PMS_P2;Temp;Humidity;BMP_temperature;BMP_pressure;BME280_temperature;BME280_humidity;BME280_pressure;Samples;Min_cycle;Max_cycle;Signal;HPM_P1;HPM_P2
2024/02/04 00:01:07;;;;;;;53.17;28.98;;;;;;;2.02;100.00;93500.25;5071389;28;21027;-71
2024/02/04 00:03:34;;;;;;;41.72;24.08;;;;;;;2.12;100.00;93503.50;5071530;28;20076;-70
2024/02/04 00:06:01;;;;;;;32.97;20.35;;;;;;;1.95;100.00;93507.66;5067963;28;20048;-70
2024/02/04 00:08:28;;;;;;;34.90;21.10;;;;;;;2.06;100.00;93506.63;5074664;28;20047;-70
2024/02/04 00:10:55;;;;;;;41.53;26.42;;;;;;;2.11;100.00;93514.56;5068791;28;20424;-70
2024/02/04 00:13:22;;;;;;;43.65;25.88;;;;;;;2.07;100.00;93497.28;5068461;28;20420;-70
2024/02/04 00:15:49;;;;;;;42.70;24.25;;;;;;;2.22;100.00;93502.59;5077591;28;20109;-70
2024/02/04 00:18:18;;;;;;;159.98;74.38;;;;;;;2.31;100.00;93493.28;5079191;28;20473;-70
2024/02/04 00:20:45;;;;;;;47.15;27.25;;;;;;;2.32;100.00;93494.88;5070566;28;20066;-70
2024/02/04 00:23:11;;;;;;;51.05;25.65;;;;;;;2.35;100.00;93484.41;5077824;28;20048;-70
2024/02/04 00:25:41;;;;;;;44.65;27.52;;;;;;;2.36;100.00;93489.34;5075048;28;20048;-70
2024/02/04 00:28:11;;;;;;;67.50;36.15;;;;;;;2.44;100.00;93482.72;5068668;28;20172;-70
2024/02/04 00:30:38;;;;;;;61.25;32.22;;;;;;;2.48;100.00;93484.00;5070561;28;20049;-71
2024/02/04 00:33:05;;;;;;;54.47;30.17;;;;;;;2.50;100.00;93487.97;5068507;28;20041;-71
2024/02/04 00:35:34;;;;;;;46.80;26.27;;;;;;;2.42;100.00;93460.06;5070399;28;20148;-71
2024/02/04 00:38:02;;;;;;;43.45;25.02;;;;;;;2.65;100.00;93497.53;5069569;28;20574;-70
2024/02/04 00:40:29;;;;;;;45.58;25.38;;;;;;;2.62;100.00;93490.22;5070999;28;20107;-70
2024/02/04 00:42:56;;;;;;;42.88;25.33;;;;;;;2.53;100.00;93492.75;5070937;28;20048;-71
2024/02/04 00:45:23;;;;;;;40.30;24.50;;;;;;;2.48;100.00;93474.66;5072305;28;20085;-70
2024/02/04 00:47:50;;;;;;;40.35;23.55;;;;;;;2.60;100.00;93489.59;5069657;28;20498;-70
2024/02/04 00:50:17;;;;;;;40.95;23.35;;;;;;;2.65;100.00;93497.53;5069858;28;20044;-70
2024/02/04 00:52:45;;;;;;;41.88;25.23;;;;;;;2.62;100.00;93493.56;5074954;28;20151;-70
2024/02/04 00:55:12;;;;;;;48.45;26.40;;;;;;;2.67;100.00;93491.38;5069048;28;20054;-70
2024/02/04 00:57:39;;;;;;;47.58;25.42;;;;;;;2.73;100.00;93499.31;5070904;28;20045;-70
2024/02/04 01:00:09;;;;;;;45.83;26.27;;;;;;;2.73;100.00;93495.00;5072054;28;20127;-70
2024/02/04 01:02:36;;;;;;;41.83;21.75;;;;;;;2.72;100.00;93490.91;5075769;28;20540;-70
2024/02/04 01:05:03;;;;;;;28.27;17.38;;;;;;;2.73;100.00;93489.16;5069801;28;20048;-70
2024/02/04 01:07:30;;;;;;;31.02;18.60;;;;;;;2.79;100.00;93501.22;5069307;28;20048;-70
2024/02/04 01:09:58;;;;;;;35.38;20.23;;;;;;;2.80;100.00;93490.13;5071830;28;20051;-70
2024/02/04 01:12:25;;;;;;;34.15;22.50;;;;;;;2.70;100.00;93469.97;5068642;28;20048;-70
2024/02/04 01:14:52;;;;;;;33.83;20.08;;;;;;;2.88;100.00;93490.13;5070107;28;20155;-70
2024/02/04 01:17:19;;;;;;;29.77;19.25;;;;;;;2.86;100.00;93488.72;5070158;28;20488;-70
2024/02/04 01:19:46;;;;;;;30.27;18.77;;;;;;;2.94;100.00;93494.63;5068798;28;20040;-70
2024/02/04 01:22:13;;;;;;;33.65;21.80;;;;;;;2.96;100.00;93496.19;5073160;28;20447;-70
2024/02/04 01:24:40;;;;;;;34.30;23.10;;;;;;;3.01;100.00;93488.91;5076255;28;20051;-71
2024/02/04 01:27:08;;;;;;;36.03;21.27;;;;;;;2.89;100.00;93448.63;5075297;28;20056;-70
2024/02/04 01:29:35;;;;;;;32.35;19.48;;;;;;;3.05;100.00;93478.28;5067125;28;20049;-70
2024/02/04 01:32:02;;;;;;;31.15;18.52;;;;;;;3.12;100.00;93482.72;5069082;28;20406;-70
2024/02/04 01:34:29;;;;;;;32.55;19.30;;;;;;;3.12;100.00;93486.06;5068189;28;20052;-70
2024/02/04 01:36:56;;;;;;;33.15;19.48;;;;;;;3.14;100.00;93481.63;5076551;28;20453;-70
2024/02/04 01:39:23;;;;;;;27.65;17.48;;;;;;;3.17;100.00;93478.78;5067915;28;20049;-70
2024/02/04 01:41:50;;;;;;;27.80;17.00;;;;;;;3.11;100.00;93478.59;5070146;28;20066;-70
2024/02/04 01:44:19;;;;;;;32.00;17.35;;;;;;;3.14;100.00;93476.53;5078131;28;20052;-70
2024/02/04 01:46:46;;;;;;;27.80;16.25;;;;;;;3.11;100.00;93481.94;5072254;28;20044;-70
2024/02/04 01:49:13;;;;;;;28.75;18.25;;;;;;;3.08;100.00;93477.19;5073938;28;20048;-70
2024/02/04 01:51:41;;;;;;;26.73;17.67;;;;;;;3.13;100.00;93464.81;5074530;28;20052;-70
2024/02/04 01:54:08;;;;;;;27.35;16.92;;;;;;;3.12;100.00;93478.47;5074938;28;20063;-70
2024/02/04 01:56:36;;;;;;;36.63;24.27;;;;;;;2.90;100.00;93479.84;5073900;28;20076;-70
2024/02/04 01:59:03;;;;;;;32.45;19.52;;;;;;;3.10;100.00;93474.50;5074162;28;20055;-70
2024/02/04 02:01:32;;;;;;;24.10;17.25;;;;;;;3.16;100.00;93469.56;5070059;28;20047;-70
2024/02/04 02:03:59;;;;;;;22.27;13.27;;;;;;;3.19;100.00;93464.19;5080408;28;20420;-70
2024/02/04 02:06:27;;;;;;;27.25;16.85;;;;;;;2.82;100.00;93470.47;5074220;28;20048;-70
2024/02/04 02:08:59;;;;;;;31.10;18.45;;;;;;;3.04;100.00;93458.13;5080317;28;20058;-70
2024/02/04 02:11:36;;;;;;;26.77;16.20;;;;;;;3.15;100.00;93457.81;5071359;28;20390;-70
2024/02/04 02:14:07;;;;;;;25.80;15.55;;;;;;;3.19;100.00;93461.63;5076396;28;20049;-70
2024/02/04 02:16:35;;;;;;;24.95;15.77;;;;;;;3.23;100.00;93461.34;5070902;28;20132;-70
2024/02/04 02:19:13;;;;;;;23.95;15.93;;;;;;;3.00;100.00;93464.50;5070165;28;20045;-70
2024/02/04 02:21:48;;;;;;;26.35;17.20;;;;;;;3.01;100.00;93448.31;5073226;28;20053;-70
2024/02/04 02:24:18;;;;;;;23.77;16.03;;;;;;;3.15;100.00;93447.66;5070005;28;20054;-70
2024/02/04 02:26:47;;;;;;;31.80;19.80;;;;;;;3.07;100.00;93468.75;5072484;28;20923;-70
2024/02/04 02:29:14;;;;;;;30.55;18.95;;;;;;;3.14;100.00;93461.31;5073371;28;20082;-71
2024/02/04 02:31:43;;;;;;;27.05;16.77;;;;;;;3.14;100.00;93443.53;5080442;28;20058;-70
2024/02/04 02:34:11;;;;;;;27.27;17.60;;;;;;;3.34;100.00;93464.34;5069199;28;20049;-70
2024/02/04 02:36:45;;;;;;;29.42;17.85;;;;;;;3.40;100.00;93454.50;5073962;28;20508;-70
2024/02/04 02:39:18;;;;;;;29.75;18.48;;;;;;;3.45;100.00;93452.28;5071147;28;20052;-70
2024/02/04 02:41:50;;;;;;;27.95;18.38;;;;;;;3.43;100.00;93462.59;5072323;28;20036;-70
2024/02/04 02:44:18;;;;;;;29.52;18.95;;;;;;;3.26;100.00;93453.38;5072391;28;20060;-70
2024/02/04 02:46:47;;;;;;;28.77;18.85;;;;;;;3.35;100.00;93452.44;5071833;28;20044;-71
2024/02/04 02:49:14;;;;;;;36.08;24.55;;;;;;;3.23;100.00;93457.03;5069626;28;20072;-70
2024/02/04 02:51:41;;;;;;;35.83;22.50;;;;;;;3.26;100.00;93450.84;5075639;28;20152;-70
2024/02/04 02:54:08;;;;;;;34.95;22.42;;;;;;;3.32;100.00;93456.09;5071427;28;20048;-70
2024/02/04 02:56:35;;;;;;;33.72;22.15;;;;;;;3.35;100.00;93444.84;5070217;28;20055;-70
2024/02/04 02:59:03;;;;;;;32.17;21.17;;;;;;;3.39;100.00;93453.72;5076139;28;20048;-70
2024/02/04 03:01:30;;;;;;;36.00;24.30;;;;;;;3.23;100.00;93467.19;5072341;28;20126;-70
2024/02/04 03:03:57;;;;;;;37.53;23.60;;;;;;;3.23;100.00;93461.34;5072862;28;20049;-70
2024/02/04 03:06:24;;;;;;;43.85;24.88;;;;;;;3.27;100.00;93460.03;5070598;28;20129;-70
2024/02/04 03:08:51;;;;;;;39.47;25.75;;;;;;;3.19;100.00;93459.09;5072193;28;20055;-71
2024/02/04 03:11:18;;;;;;;39.55;25.42;;;;;;;3.26;100.00;93453.38;5074116;28;20841;-71
2024/02/04 03:13:45;;;;;;;41.40;26.48;;;;;;;3.33;100.00;93457.69;5068486;28;20135;-70
2024/02/04 03:16:13;;;;;;;42.83;26.98;;;;;;;3.38;100.00;93454.66;5078866;28;20048;-70
2024/02/04 03:18:41;;;;;;;37.75;23.65;;;;;;;3.40;100.00;93444.34;5074343;28;20044;-70
2024/02/04 03:21:13;;;;;;;33.67;19.83;;;;;;;3.39;100.00;93432.59;5073682;28;20048;-71
2024/02/04 03:23:42;;;;;;;54.25;32.95;;;;;;;3.45;100.00;93448.00;5075663;28;20064;-71
2024/02/04 03:26:08;;;;;;;38.78;25.30;;;;;;;3.41;100.00;93449.28;5069074;28;20048;-71
2024/02/04 03:28:35;;;;;;;32.17;20.13;;;;;;;3.42;100.00;93447.53;5068533;28;20094;-71
2024/02/04 03:31:03;;;;;;;30.50;18.73;;;;;;;3.49;100.00;93456.09;5083891;28;20113;-71
2024/02/04 03:33:31;;;;;;;30.60;19.40;;;;;;;3.55;100.00;93459.72;5072612;28;20074;-71
2024/02/04 03:35:58;;;;;;;32.03;21.00;;;;;;;3.35;100.00;93462.59;5071717;28;20056;-71
2024/02/04 03:38:26;;;;;;;45.05;26.08;;;;;;;3.36;100.00;93448.16;5072041;28;20040;-71
2024/02/04 03:40:53;;;;;;;92.07;48.00;;;;;;;3.39;100.00;93435.13;5072435;28;20044;-71
2024/02/04 03:43:20;;;;;;;67.55;38.25;;;;;;;3.42;100.00;93455.94;5076158;28;20040;-71
2024/02/04 03:45:47;;;;;;;66.57;39.00;;;;;;;3.43;100.00;93441.50;5068905;28;20579;-71
2024/02/04 03:48:13;;;;;;;70.55;38.05;;;;;;;3.44;100.00;93428.66;5070779;28;20119;-70
2024/02/04 03:50:42;;;;;;;70.15;40.30;;;;;;;3.47;100.00;93422.44;5075184;28;20044;-71
2024/02/04 03:53:09;;;;;;;59.20;35.15;;;;;;;3.40;100.00;93427.38;5072366;28;20051;-71
2024/02/04 03:55:36;;;;;;;57.13;32.70;;;;;;;3.34;100.00;93422.94;5067004;28;20040;-70
2024/02/04 03:58:03;;;;;;;47.13;27.05;;;;;;;3.31;100.00;93416.44;5071653;28;20059;-71
2024/02/04 04:00:30;;;;;;;37.13;23.02;;;;;;;3.37;100.00;93424.38;5068063;28;20048;-71
2024/02/04 04:02:57;;;;;;;40.97;25.35;;;;;;;3.29;100.00;93412.47;5078224;28;20048;-71
2024/02/04 04:05:26;;;;;;;35.20;21.73;;;;;;;3.38;100.00;93429.25;5072887;28;20044;-71
2024/02/04 04:07:54;;;;;;;29.85;18.83;;;;;;;3.41;100.00;93436.56;5073801;28;20127;-71
2024/02/04 04:10:21;;;;;;;31.65;20.33;;;;;;;3.42;100.00;93445.00;5073125;28;20044;-71
2024/02/04 04:12:48;;;;;;;23.90;16.45;;;;;;;3.39;100.00;93435.94;5070888;28;20062;-71
2024/02/04 04:15:15;;;;;;;28.20;18.88;;;;;;;3.47;100.00;93440.19;5070386;28;20076;-71
2024/02/04 04:17:42;;;;;;;30.63;19.73;;;;;;;3.49;100.00;93418.00;5069872;28;20037;-71
2024/02/04 04:20:09;;;;;;;29.38;18.05;;;;;;;3.43;100.00;93403.41;5068076;28;20746;-71
2024/02/04 04:22:39;;;;;;;32.70;20.30;;;;;;;3.36;100.00;93379.59;5082412;28;20040;-70
2024/02/04 04:25:08;;;;;;;32.03;20.90;;;;;;;3.55;100.00;93401.31;5076335;28;20052;-70
2024/02/04 04:27:35;;;;;;;31.52;19.98;;;;;;;3.55;100.00;93402.09;5070397;28;20070;-71
2024/02/04 04:30:02;;;;;;;45.90;26.23;;;;;;;3.47;100.00;93410.53;5071184;28;20047;-71
2024/02/04 04:32:29;;;;;;;31.13;19.40;;;;;;;3.50;100.00;93419.56;5070834;28;20067;-70
2024/02/04 04:34:56;;;;;;;27.55;19.45;;;;;;;3.48;100.00;93416.41;5074992;28;20522;-70
2024/02/04 04:37:23;;;;;;;37.83;22.88;;;;;;;3.54;100.00;93427.66;5067788;28;20047;-70
2024/02/04 04:39:50;;;;;;;35.22;22.38;;;;;;;3.53;100.00;93428.63;5072197;28;20044;-71
2024/02/04 04:42:18;;;;;;;40.00;24.83;;;;;;;3.58;100.00;93416.25;5073267;28;20494;-71
2024/02/04 04:44:45;;;;;;;36.58;22.80;;;;;;;3.53;100.00;93419.28;5073286;28;20067;-71
2024/02/04 04:47:12;;;;;;;23.50;15.93;;;;;;;3.27;100.00;93392.31;5067116;28;20411;-70
2024/02/04 04:49:39;;;;;;;23.77;15.70;;;;;;;3.46;100.00;93416.56;5074999;28;20048;-70
2024/02/04 04:52:06;;;;;;;30.35;19.65;;;;;;;3.47;100.00;93413.06;5076655;28;20117;-70
2024/02/04 04:54:33;;;;;;;22.38;14.98;;;;;;;3.53;100.00;93421.00;5066700;28;20135;-70
2024/02/04 04:57:00;;;;;;;35.28;21.42;;;;;;;3.57;100.00;93427.34;5068893;28;20052;-70
2024/02/04 04:59:28;;;;;;;27.35;17.95;;;;;;;3.53;100.00;93421.81;5068326;28;20059;-70
2024/02/04 05:01:55;;;;;;;21.15;14.48;;;;;;;3.59;100.00;93425.44;5069705;28;20497;-70
2024/02/04 05:04:25;;;;;;;25.23;16.48;;;;;;;3.59;100.00;93423.69;5072651;28;20056;-70
2024/02/04 05:06:52;;;;;;;25.80;18.73;;;;;;;3.61;100.00;93426.06;5067665;28;20067;-69
2024/02/04 05:09:19;;;;;;;29.50;19.77;;;;;;;3.43;100.00;93383.88;5072998;28;20416;-70
2024/02/04 05:11:46;;;;;;;29.42;19.85;;;;;;;3.53;100.00;93403.22;5066244;28;20059;-69
2024/02/04 05:14:13;;;;;;;29.30;19.95;;;;;;;3.37;100.00;93387.06;5070295;28;20404;-70
2024/02/04 05:16:43;;;;;;;36.15;23.95;;;;;;;2.88;100.00;93420.84;5069858;28;20049;-69
2024/02/04 05:19:10;;;;;;;40.45;24.42;;;;;;;3.14;100.00;93405.47;5074788;28;20040;-69
2024/02/04 05:21:40;;;;;;;41.38;25.08;;;;;;;3.26;100.00;93405.97;5072314;28;20056;-70
2024/02/04 05:24:07;;;;;;;40.40;23.17;;;;;;;3.29;100.00;93412.47;5084898;28;20501;-69
2024/02/04 05:26:34;;;;;;;79.50;45.88;;;;;;;3.17;100.00;93410.25;5074537;28;20049;-70
2024/02/04 05:29:00;;;;;;;53.83;30.17;;;;;;;3.18;100.00;93409.28;5075370;28;20048;-70
2024/02/04 05:31:27;;;;;;;51.72;30.10;;;;;;;3.29;100.00;93407.38;5079456;28;20052;-70
2024/02/04 05:33:57;;;;;;;53.55;29.92;;;;;;;3.28;100.00;93410.88;5074761;28;20131;-70
2024/02/04 05:36:24;;;;;;;34.55;24.13;;;;;;;3.13;100.00;93403.88;5073541;28;20044;-70
2024/02/04 05:38:50;;;;;;;34.40;22.92;;;;;;;3.31;100.00;93420.69;5074804;28;20048;-69
2024/02/04 05:41:20;;;;;;;41.25;26.23;;;;;;;3.34;100.00;93428.00;5074044;28;20051;-70
2024/02/04 05:43:47;;;;;;;35.47;22.45;;;;;;;3.39;100.00;93417.38;5076398;28;20041;-69
2024/02/04 05:46:15;;;;;;;35.15;21.05;;;;;;;3.45;100.00;93407.38;5070819;28;20048;-70
2024/02/04 05:48:44;;;;;;;136.32;78.88;;;;;;;3.50;100.00;93414.50;5085534;28;20055;-69
2024/02/04 05:51:12;;;;;;;41.70;27.08;;;;;;;3.60;100.00;93412.59;5075293;28;20048;-70
2024/02/04 05:53:39;;;;;;;31.85;19.50;;;;;;;3.59;100.00;93427.97;5070623;28;20071;-70
2024/02/04 05:56:06;;;;;;;36.65;22.88;;;;;;;3.63;100.00;93423.38;5072625;28;20139;-70
2024/02/04 05:58:33;;;;;;;35.30;20.42;;;;;;;3.70;100.00;93424.31;5074956;28;20435;-70
2024/02/04 06:01:00;;;;;;;26.10;17.10;;;;;;;3.56;100.00;93436.72;5073081;28;20066;-70
2024/02/04 06:03:27;;;;;;;23.75;16.98;;;;;;;3.58;100.00;93428.94;5073846;28;20048;-70
2024/02/04 06:05:54;;;;;;;48.50;31.48;;;;;;;3.48;100.00;93434.97;5072433;28;20059;-71
2024/02/04 06:08:23;;;;;;;40.58;23.98;;;;;;;3.41;100.00;93445.91;5079263;28;20044;-70
2024/02/04 06:10:50;;;;;;;53.80;32.42;;;;;;;3.53;100.00;93443.88;5076836;28;20040;-70
2024/02/04 06:13:16;;;;;;;53.88;32.05;;;;;;;3.62;100.00;93458.16;5070347;28;20062;-70
2024/02/04 06:15:43;;;;;;;57.90;33.30;;;;;;;3.48;100.00;93452.75;5074729;28;20044;-70
2024/02/04 06:18:10;;;;;;;52.35;30.63;;;;;;;3.56;100.00;93461.34;5070237;28;20079;-70
2024/02/04 06:20:37;;;;;;;48.50;31.55;;;;;;;3.67;100.00;93470.38;5071376;28;20041;-70
2024/02/04 06:23:04;;;;;;;38.75;26.10;;;;;;;3.69;100.00;93450.66;5076339;28;20503;-70
2024/02/04 06:25:33;;;;;;;48.63;33.67;;;;;;;3.73;100.00;93477.34;5072142;28;20048;-69
2024/02/04 06:28:00;;;;;;;67.90;42.42;;;;;;;3.81;100.00;93476.53;5079191;28;20048;-70
2024/02/04 06:30:27;;;;;;;45.47;27.40;;;;;;;3.83;100.00;93472.88;5077437;28;20048;-69
2024/02/04 06:32:54;;;;;;;42.45;28.45;;;;;;;3.95;100.00;93477.63;5082494;28;20050;-70
2024/02/04 06:35:21;;;;;;;60.38;37.22;;;;;;;3.94;100.00;93481.91;5080158;28;20040;-70
2024/02/04 06:37:48;;;;;;;67.82;44.75;;;;;;;3.97;100.00;93496.84;5074617;28;20111;-70
2024/02/04 06:40:15;;;;;;;58.47;38.17;;;;;;;3.92;100.00;93494.00;5070212;28;20051;-70
2024/02/04 06:42:44;;;;;;;51.75;33.08;;;;;;;4.04;100.00;93503.81;5070757;28;20056;-69
2024/02/04 06:45:11;;;;;;;63.30;38.13;;;;;;;3.55;100.00;93502.91;5075544;28;20048;-69
2024/02/04 06:47:38;;;;;;;59.78;36.72;;;;;;;3.80;100.00;93488.44;5072859;28;20530;-69
2024/02/04 06:50:06;;;;;;;69.47;39.42;;;;;;;3.68;100.00;93504.97;5070218;28;20048;-70
2024/02/04 06:52:33;;;;;;;64.65;38.80;;;;;;;3.84;100.00;93487.16;5076258;28;20058;-69
2024/02/04 06:55:00;;;;;;;66.60;36.65;;;;;;;3.91;100.00;93482.25;5079166;28;20059;-69
2024/02/04 06:57:27;;;;;;;56.72;34.63;;;;;;;3.81;100.00;93481.63;5070870;28;20051;-69
2024/02/04 06:59:55;;;;;;;70.00;38.25;;;;;;;3.82;100.00;93481.47;5071818;28;20432;-70
2024/02/04 07:02:22;;;;;;;105.82;54.92;;;;;;;3.92;100.00;93483.81;5069806;28;20045;-69
2024/02/04 07:04:49;;;;;;;78.28;47.60;;;;;;;3.61;100.00;93474.31;5070781;28;20162;-69
2024/02/04 07:07:16;;;;;;;62.22;37.80;;;;;;;3.84;100.00;93486.41;5070065;28;20051;-69
2024/02/04 07:09:43;;;;;;;80.75;54.25;;;;;;;3.90;100.00;93495.09;5071463;28;20859;-69
2024/02/04 07:12:10;;;;;;;117.15;62.42;;;;;;;3.75;100.00;93500.81;5017531;28;1645357;-69
2024/02/04 07:14:37;;;;;;;105.53;60.38;;;;;;;3.79;100.00;93484.31;5073581;28;20040;-69
2024/02/04 07:17:05;;;;;;;97.65;55.70;;;;;;;3.84;100.00;93487.16;5077118;28;20048;-69
2024/02/04 07:19:32;;;;;;;218.55;100.05;;;;;;;3.95;100.00;93486.06;5069803;28;20435;-69
2024/02/04 07:21:59;;;;;;;246.32;115.30;;;;;;;4.02;100.00;93483.63;5076127;28;20404;-69
2024/02/04 07:24:26;;;;;;;152.20;75.82;;;;;;;4.05;100.00;93485.88;5078486;28;20048;-69
2024/02/04 07:26:53;;;;;;;120.78;64.07;;;;;;;4.16;100.00;93477.09;5071160;28;20856;-69
2024/02/04 07:29:20;;;;;;;93.68;55.05;;;;;;;4.26;100.00;93482.00;5068820;28;20047;-70
2024/02/04 07:31:47;;;;;;;99.65;53.47;;;;;;;4.34;100.00;93469.25;5075381;28;20042;-70
2024/02/04 07:34:15;;;;;;;118.60;66.72;;;;;;;4.48;100.00;93472.84;5069577;28;20053;-69
2024/02/04 07:36:43;;;;;;;129.25;71.95;;;;;;;4.60;100.00;93478.38;5075907;28;20051;-69
2024/02/04 07:39:10;;;;;;;118.03;69.03;;;;;;;4.68;100.00;93477.56;5067958;28;20056;-69
2024/02/04 07:41:37;;;;;;;103.97;60.38;;;;;;;4.72;100.00;93485.66;5073439;28;20518;-69
2024/02/04 07:44:04;;;;;;;97.47;59.28;;;;;;;4.74;100.00;93478.63;5071251;28;20054;-69
2024/02/04 07:46:37;;;;;;;117.35;71.50;;;;;;;4.82;100.00;93484.47;5073555;28;20054;-69
2024/02/04 07:49:03;;;;;;;86.78;51.88;;;;;;;4.86;100.00;93487.47;5073989;28;20145;-69
2024/02/04 07:51:32;;;;;;;59.55;39.05;;;;;;;5.01;100.00;93490.13;5071363;28;20135;-69
2024/02/04 07:53:59;;;;;;;53.97;34.75;;;;;;;5.01;100.00;93502.84;5069323;28;20052;-69
2024/02/04 07:56:26;;;;;;;54.17;33.40;;;;;;;5.13;100.00;93492.28;5068935;28;20535;-69
2024/02/04 07:58:53;;;;;;;60.55;38.58;;;;;;;5.15;100.00;93496.25;5068972;28;20055;-70
2024/02/04 08:01:20;;;;;;;56.72;38.20;;;;;;;5.28;100.00;93495.66;5069429;28;20044;-70
2024/02/04 08:03:47;;;;;;;56.83;33.78;;;;;;;5.42;100.00;93483.16;5068864;28;20055;-69
2024/02/04 08:06:14;;;;;;;19.17;13.88;;;;;;;5.72;100.00;93485.78;5069915;28;20052;-69
2024/02/04 08:08:44;;;;;;;30.30;21.17;;;;;;;6.15;100.00;93491.16;5071959;28;20048;-69
2024/02/04 08:11:16;;;;;;;65.93;41.72;;;;;;;6.36;100.00;93486.31;5070948;28;20052;-69
2024/02/04 08:13:44;;;;;;;73.88;46.90;;;;;;;6.30;100.00;93476.81;5068617;28;20060;-69
2024/02/04 08:16:11;;;;;;;79.38;48.92;;;;;;;6.41;100.00;93486.56;5069283;28;21052;-69
2024/02/04 08:18:37;;;;;;;68.40;45.30;;;;;;;6.21;100.00;93463.34;5068219;28;20054;-69
2024/02/04 08:21:05;;;;;;;56.30;35.35;;;;;;;6.35;100.00;93497.50;5069559;28;20423;-69
2024/02/04 08:23:32;;;;;;;65.13;37.65;;;;;;;6.70;100.00;93497.72;5068939;28;20143;-69
2024/02/04 08:26:00;;;;;;;33.38;19.83;;;;;;;7.03;100.00;93502.41;5069265;28;20624;-70
2024/02/04 08:28:27;;;;;;;23.50;14.55;;;;;;;7.26;99.81;93495.59;5068441;28;20915;-70
2024/02/04 08:30:54;;;;;;;23.10;15.30;;;;;;;7.59;97.31;93500.97;5071169;28;20136;-69
2024/02/04 08:33:21;;;;;;;19.15;11.32;;;;;;;7.87;95.98;93499.44;5068067;28;20499;-70
2024/02/04 08:35:49;;;;;;;205.48;96.10;;;;;;;7.84;94.29;93497.25;5071200;28;20083;-69
2024/02/04 08:38:16;;;;;;;53.42;27.77;;;;;;;8.14;91.17;93505.53;5070065;28;20046;-70
2024/02/04 08:40:43;;;;;;;14.73;8.05;;;;;;;8.37;88.64;93508.81;5070818;28;20089;-70
2024/02/04 08:43:11;;;;;;;8.82;5.85;;;;;;;8.49;85.95;93497.06;5071363;28;20058;-70
2024/02/04 08:45:38;;;;;;;9.68;6.05;;;;;;;8.61;85.28;93497.34;5069449;28;20051;-70
2024/02/04 08:48:06;;;;;;;16.48;9.32;;;;;;;8.75;86.69;93500.75;5078033;28;20403;-70
2024/02/04 08:50:33;;;;;;;10.50;4.97;;;;;;;8.90;83.05;93508.31;5071722;28;20046;-70
2024/02/04 08:53:06;;;;;;;14.57;6.85;;;;;;;8.95;82.91;93505.94;5071946;28;20520;-70
2024/02/04 08:55:33;;;;;;;20.42;10.88;;;;;;;8.86;82.19;93517.38;5067856;28;20963;-70
2024/02/04 08:58:00;;;;;;;7.65;5.10;;;;;;;9.08;82.97;93512.13;5069403;28;20048;-70
2024/02/04 09:00:28;;;;;;;5.53;3.60;;;;;;;9.12;81.40;93523.53;5068508;28;20423;-70
2024/02/04 09:02:55;;;;;;;6.97;4.03;;;;;;;8.95;81.68;93523.09;5067899;28;20053;-69
2024/02/04 09:05:22;;;;;;;6.70;4.20;;;;;;;9.27;82.22;93525.97;5069352;28;20488;-69
2024/02/04 09:07:51;;;;;;;7.95;4.93;;;;;;;9.18;80.81;93527.13;5072811;28;20144;-70
2024/02/04 09:10:18;;;;;;;8.07;4.68;;;;;;;9.04;81.58;93528.84;5069039;28;20774;-70
2024/02/04 09:12:45;;;;;;;15.32;9.43;;;;;;;9.14;81.02;93538.75;5068677;28;20059;-70
2024/02/04 09:15:12;;;;;;;8.77;5.38;;;;;;;9.31;80.20;93539.19;5075883;28;20044;-70
2024/02/04 09:17:40;;;;;;;43.85;29.15;;;;;;;9.46;79.26;93531.34;5068039;28;20580;-70
2024/02/04 09:20:08;;;;;;;12.52;7.07;;;;;;;9.16;80.17;93544.47;5071018;28;20066;-70
2024/02/04 09:22:35;;;;;;;8.38;5.05;;;;;;;9.31;80.22;93542.53;5068415;28;20851;-70
2024/02/04 09:25:02;;;;;;;11.85;5.40;;;;;;;9.62;79.39;93536.09;5069502;28;20436;-70
2024/02/04 09:27:29;;;;;;;9.52;5.40;;;;;;;9.71;79.88;93533.34;5069468;28;20052;-70
2024/02/04 09:29:58;;;;;;;22.75;5.70;;;;;;;9.83;78.79;93534.34;5068969;28;20420;-70
2024/02/04 09:32:25;;;;;;;11.82;5.32;;;;;;;9.73;79.01;93531.38;5068477;28;20159;-70
2024/02/04 09:34:53;;;;;;;7.60;3.70;;;;;;;9.74;78.77;93527.81;5067800;28;20611;-70
2024/02/04 09:37:20;;;;;;;9.98;5.03;;;;;;;9.67;77.80;93530.38;5069433;28;20123;-70
2024/02/04 09:39:47;;;;;;;17.88;6.85;;;;;;;10.03;79.88;93529.22;5068461;28;20052;-70
2024/02/04 09:42:21;;;;;;;10.95;4.55;;;;;;;10.38;79.82;93519.69;5068312;28;20048;-70
2024/02/04 09:44:49;;;;;;;8.85;3.53;;;;;;;10.38;77.82;93523.03;5069139;28;20052;-71
2024/02/04 09:47:17;;;;;;;7.70;3.63;;;;;;;10.29;77.27;93530.16;5067701;28;20497;-71
2024/02/04 09:49:45;;;;;;;6.13;3.47;;;;;;;9.99;77.91;93512.63;5069072;28;20051;-72
2024/02/04 09:52:14;;;;;;;4.68;2.25;;;;;;;9.71;79.68;93497.41;5071167;28;20595;-71
2024/02/04 09:54:46;;;;;;;6.35;2.38;;;;;;;10.11;79.78;93517.16;5070407;28;20495;-73
2024/02/04 09:57:14;;;;;;;5.13;2.25;;;;;;;10.42;79.20;93519.09;5069930;28;20052;-72
2024/02/04 09:59:43;;;;;;;6.65;2.85;;;;;;;10.61;77.64;93521.06;5071370;28;20587;-71
2024/02/04 10:02:10;;;;;;;3.95;2.30;;;;;;;10.22;78.74;93516.56;5067951;28;20045;-70
2024/02/04 10:04:37;;;;;;;4.88;2.20;;;;;;;10.53;79.04;93504.88;5070445;28;20056;-70
2024/02/04 10:07:05;;;;;;;6.53;2.30;;;;;;;10.63;78.67;93496.75;5072377;28;20644;-70
2024/02/04 10:09:33;;;;;;;4.00;2.28;;;;;;;10.72;78.82;93507.59;5071552;28;20048;-70
2024/02/04 10:12:00;;;;;;;4.35;2.10;;;;;;;10.62;79.01;93504.66;5077251;28;20058;-70
2024/02/04 10:14:27;;;;;;;3.70;2.30;;;;;;;10.34;78.36;93526.22;5074833;28;20407;-70
2024/02/04 10:16:54;;;;;;;3.63;2.17;;;;;;;10.13;79.58;93531.38;5075651;28;20059;-71
2024/02/04 10:19:24;;;;;;;3.45;2.20;;;;;;;10.06;79.86;93542.63;5072890;28;20053;-70
2024/02/04 10:22:00;;;;;;;3.42;2.10;;;;;;;10.37;79.36;93513.00;5070131;28;20052;-70
2024/02/04 10:24:27;;;;;;;4.87;2.57;;;;;;;10.62;79.06;93513.16;5070691;28;20052;-71
2024/02/04 10:26:55;;;;;;;9.25;5.10;;;;;;;10.70;78.60;93514.72;5074054;28;20309;-71
2024/02/04 10:29:23;;;;;;;8.73;4.88;;;;;;;10.61;78.85;93496.19;5071195;28;20041;-71
2024/02/04 10:31:50;;;;;;;8.20;4.47;;;;;;;10.54;78.26;93501.31;5070163;28;20589;-70
2024/02/04 10:34:17;;;;;;;8.43;4.45;;;;;;;10.69;78.99;93497.72;5074439;28;20058;-71
2024/02/04 10:36:44;;;;;;;3.25;2.20;;;;;;;10.96;78.80;93510.47;5073078;28;20041;-71
2024/02/04 10:39:12;;;;;;;2.08;1.17;;;;;;;10.92;78.51;93493.91;5068834;28;20044;-71
2024/02/04 10:41:45;;;;;;;1.95;1.10;;;;;;;10.89;78.29;93495.09;5073445;28;20072;-71
2024/02/04 10:44:17;;;;;;;3.40;1.10;;;;;;;10.97;78.98;93483.75;5073740;28;20033;-71
2024/02/04 10:46:48;;;;;;;6.63;2.20;;;;;;;10.64;78.62;93480.34;5073145;28;20051;-71
2024/02/04 10:49:16;;;;;;;9.23;2.65;;;;;;;10.74;79.06;93477.34;5072942;28;20055;-71
2024/02/04 10:51:43;;;;;;;2.53;0.90;;;;;;;10.47;79.08;93486.91;5071013;28;20036;-70
2024/02/04 10:54:15;;;;;;;1.83;1.10;;;;;;;10.47;79.01;93492.84;5078627;28;20510;-71
2024/02/04 10:56:44;;;;;;;4.68;0.98;;;;;;;10.54;79.17;93491.06;5073466;28;20409;-70
2024/02/04 10:59:17;;;;;;;1.65;0.80;;;;;;;10.41;79.26;93484.13;5070623;28;20513;-71
2024/02/04 11:01:48;;;;;;;2.10;1.17;;;;;;;10.36;79.67;93485.72;5070637;28;20037;-71
2024/02/04 11:04:16;;;;;;;1.90;0.90;;;;;;;10.37;79.50;93480.38;5074933;28;20043;-71
2024/02/04 11:06:43;;;;;;;2.97;1.25;;;;;;;10.40;79.20;93486.91;5073363;28;20040;-71
2024/02/04 11:09:14;;;;;;;4.30;1.83;;;;;;;10.16;79.56;93491.69;5070644;28;20523;-71
2024/02/04 11:11:42;;;;;;;2.72;1.40;;;;;;;10.39;79.10;93498.97;5072105;28;20121;-71
2024/02/04 11:14:14;;;;;;;2.47;1.20;;;;;;;10.36;79.54;93494.22;5071566;28;20044;-71
2024/02/04 11:17:07;;;;;;;3.47;1.30;;;;;;;10.62;78.90;93495.19;5068900;28;20051;-71
2024/02/04 11:19:48;;;;;;;3.35;1.20;;;;;;;10.39;79.27;93480.19;5069980;28;20055;-71
2024/02/04 11:22:37;;;;;;;5.88;1.90;;;;;;;10.38;78.42;93473.47;5070108;28;20151;-71
2024/02/04 11:25:28;;;;;;;6.50;3.15;;;;;;;10.31;78.48;93475.28;5070586;28;20063;-71